createdAt,value
2018-07-17T00:00:31.493Z,10.50
2018-07-17T00:03:00.620Z,9.33
2018-07-17T00:05:29.731Z,9.90
2018-07-17T00:07:58.813Z,6.63
2018-07-17T00:10:27.926Z,6.97
2018-07-17T00:12:57.038Z,5.77
2018-07-17T00:15:26.197Z,8.07
2018-07-17T00:17:55.281Z,11.20
2018-07-17T00:20:24.394Z,7.10
2018-07-17T00:22:53.556Z,8.37
2018-07-17T00:25:22.643Z,6.37
2018-07-17T00:27:51.806Z,7.40
2018-07-17T00:30:20.966Z,6.13
2018-07-17T00:32:50.050Z,6.67
2018-07-17T00:35:19.199Z,6.33
2018-07-17T00:37:48.365Z,6.90
2018-07-17T00:40:17.515Z,5.93
2018-07-17T00:42:46.626Z,8.13
2018-07-17T00:45:15.761Z,6.10
2018-07-17T00:47:44.902Z,6.03
2018-07-17T00:50:13.978Z,7.77
2018-07-17T00:52:43.091Z,5.37
2018-07-17T00:55:12.149Z,8.73
2018-07-17T00:57:41.251Z,5.57
2018-07-17T01:00:10.316Z,8.50
2018-07-17T01:02:44.856Z,4.80
2018-07-17T01:05:19.373Z,8.77
2018-07-17T01:07:53.806Z,10.53
2018-07-17T01:10:28.167Z,7.27
2018-07-17T01:12:56.464Z,5.83
2018-07-17T01:15:29.425Z,11.27
2018-07-17T01:17:58.823Z,7.77
2018-07-17T01:20:27.913Z,6.43
2018-07-17T01:22:57.001Z,7.90
2018-07-17T01:25:26.081Z,10.70
2018-07-17T01:27:55.208Z,8.40
2018-07-17T01:30:24.318Z,6.60
2018-07-17T01:32:53.449Z,7.53
2018-07-17T01:35:22.532Z,9.17
2018-07-17T01:37:51.722Z,7.00
2018-07-17T01:40:20.869Z,12.27
2018-07-17T01:42:49.924Z,6.10
2018-07-17T01:45:19.048Z,7.43
2018-07-17T01:47:48.212Z,10.43
2018-07-17T01:50:17.401Z,12.50
2018-07-17T01:52:46.545Z,9.13
2018-07-17T01:55:15.639Z,6.17
2018-07-17T01:57:44.805Z,6.70
2018-07-17T02:00:13.928Z,10.30
2018-07-17T02:02:43.060Z,7.93
2018-07-17T02:05:12.183Z,7.27
2018-07-17T02:07:41.294Z,7.60
2018-07-17T02:10:10.454Z,6.43
2018-07-17T02:12:39.647Z,7.07
2018-07-17T02:15:08.819Z,9.83
2018-07-17T02:17:37.881Z,13.70
2018-07-17T02:20:07.103Z,10.53
2018-07-17T02:22:36.199Z,10.23
2018-07-17T02:25:05.304Z,7.63
2018-07-17T02:27:34.403Z,12.03
2018-07-17T02:30:03.544Z,7.40
2018-07-17T02:32:32.441Z,13.63
2018-07-17T02:35:01.555Z,11.47
2018-07-17T02:37:30.698Z,7.10
2018-07-17T02:39:59.778Z,12.23
2018-07-17T02:42:28.920Z,6.43
2018-07-17T02:44:58.060Z,6.70
2018-07-17T02:47:27.216Z,6.90
2018-07-17T02:49:56.338Z,6.63
2018-07-17T02:52:25.418Z,10.70
2018-07-17T02:54:54.579Z,10.67
2018-07-17T02:57:23.695Z,8.60
2018-07-17T02:59:52.761Z,7.00
2018-07-17T03:02:21.862Z,6.53
2018-07-17T03:04:50.956Z,9.60
2018-07-17T03:07:20.123Z,9.83
2018-07-17T03:09:49.246Z,15.20
2018-07-17T03:12:18.429Z,11.83
2018-07-17T03:14:47.600Z,8.70
2018-07-17T03:17:16.728Z,12.40
2018-07-17T03:19:45.860Z,7.37
2018-07-17T03:22:15.019Z,8.60
2018-07-17T03:24:44.210Z,8.60
2018-07-17T03:27:13.251Z,12.30
2018-07-17T03:29:42.418Z,10.57
2018-07-17T03:32:11.478Z,13.63
2018-07-17T03:34:40.677Z,7.70
2018-07-17T03:37:09.779Z,8.60
2018-07-17T03:39:38.928Z,8.27
2018-07-17T03:42:08.157Z,8.27
2018-07-17T03:44:37.254Z,10.87
2018-07-17T03:47:06.370Z,6.77
2018-07-17T03:49:35.548Z,7.80
2018-07-17T03:52:04.682Z,14.43
2018-07-17T03:54:33.766Z,11.10
2018-07-17T03:57:02.937Z,10.47
2018-07-17T03:59:32.069Z,9.00
2018-07-17T04:02:01.166Z,11.73
2018-07-17T04:04:30.303Z,8.60
2018-07-17T04:06:59.201Z,10.20
2018-07-17T04:09:28.307Z,17.10
2018-07-17T04:11:57.424Z,10.00
2018-07-17T04:14:26.542Z,8.00
2018-07-17T04:16:56.692Z,8.97
2018-07-17T04:19:26.868Z,8.70
2018-07-17T04:21:56.084Z,8.37
2018-07-17T04:24:25.382Z,8.10
2018-07-17T04:26:54.908Z,7.90
2018-07-17T04:29:24.010Z,10.73
2018-07-17T04:31:53.266Z,7.77
2018-07-17T04:34:22.262Z,7.37
2018-07-17T04:36:51.365Z,11.07
2018-07-17T04:39:20.592Z,14.03
2018-07-17T04:41:49.746Z,12.20
2018-07-17T04:44:18.888Z,12.70
2018-07-17T04:46:47.943Z,8.13
2018-07-17T04:49:22.995Z,8.53
2018-07-17T04:51:52.086Z,9.90
2018-07-17T04:54:21.239Z,10.03
2018-07-17T04:56:50.318Z,12.23
2018-07-17T04:59:19.482Z,11.87
2018-07-17T05:01:48.637Z,12.87
2018-07-17T05:04:17.751Z,7.17
2018-07-17T05:06:46.843Z,10.70
2018-07-17T05:09:15.987Z,8.27
2018-07-17T05:11:45.111Z,11.00
2018-07-17T05:14:14.209Z,10.83
2018-07-17T05:16:43.294Z,15.07
2018-07-17T05:19:12.431Z,17.13
2018-07-17T05:21:41.562Z,11.30
2018-07-17T05:24:10.729Z,8.93
2018-07-17T05:26:39.865Z,22.00
2018-07-17T05:29:09.028Z,6.83
2018-07-17T05:31:38.200Z,22.80
2018-07-17T05:34:07.306Z,24.77
2018-07-17T05:36:36.457Z,8.43
2018-07-17T05:39:08.291Z,12.37
2018-07-17T05:41:37.393Z,8.30
2018-07-17T05:44:06.661Z,9.30
2018-07-17T05:46:35.882Z,10.20
2018-07-17T05:49:04.755Z,13.27
2018-07-17T05:51:33.837Z,9.93
2018-07-17T05:54:02.925Z,8.83
2018-07-17T05:56:32.037Z,10.13
2018-07-17T05:59:01.193Z,8.30
2018-07-17T06:01:30.261Z,9.03
2018-07-17T06:03:59.383Z,5.53
2018-07-17T06:06:28.460Z,4.10
2018-07-17T06:08:57.545Z,4.07
2018-07-17T06:11:26.626Z,7.20
2018-07-17T06:13:55.741Z,10.00
2018-07-17T06:16:24.854Z,5.60
2018-07-17T06:18:54.065Z,4.60
2018-07-17T06:21:23.118Z,4.83
2018-07-17T06:23:52.201Z,2.77
2018-07-17T06:26:21.330Z,4.10
2018-07-17T06:28:50.462Z,5.20
2018-07-17T06:31:19.561Z,4.33
2018-07-17T06:33:48.686Z,4.70
2018-07-17T06:36:17.788Z,3.23
2018-07-17T06:38:46.921Z,4.30
2018-07-17T06:41:16.030Z,2.73
2018-07-17T06:43:45.166Z,6.53
2018-07-17T06:46:14.289Z,6.00
2018-07-17T06:48:43.402Z,6.40
2018-07-17T06:51:12.512Z,9.30
2018-07-17T06:53:41.715Z,6.23
2018-07-17T06:56:10.807Z,4.87
2018-07-17T06:58:39.929Z,10.47
2018-07-17T07:01:09.008Z,8.00
2018-07-17T07:03:38.124Z,7.30
2018-07-17T07:06:07.249Z,8.37
2018-07-17T07:08:36.421Z,9.27
2018-07-17T07:11:05.535Z,8.10
2018-07-17T07:13:34.730Z,12.53
2018-07-17T07:16:03.829Z,10.67
2018-07-17T07:18:33.073Z,8.70
2018-07-17T07:21:02.193Z,9.07
2018-07-17T07:23:31.342Z,11.17
2018-07-17T07:26:00.446Z,6.20
2018-07-17T07:28:29.570Z,9.53
2018-07-17T07:30:58.750Z,6.00
2018-07-17T07:33:27.842Z,9.47
2018-07-17T07:35:56.942Z,6.50
2018-07-17T07:38:26.019Z,6.27
2018-07-17T07:40:55.125Z,8.33
2018-07-17T07:43:24.201Z,12.30
2018-07-17T07:45:53.278Z,15.23
2018-07-17T07:48:22.411Z,7.57
2018-07-17T07:50:51.548Z,6.53
2018-07-17T07:53:20.691Z,16.40
2018-07-17T07:55:49.798Z,5.87
2018-07-17T07:58:18.930Z,8.30
2018-07-17T08:00:48.047Z,8.30
2018-07-17T08:03:17.187Z,7.07
2018-07-17T08:05:46.249Z,8.80
2018-07-17T08:08:15.357Z,5.80
2018-07-17T08:10:44.451Z,12.60
2018-07-17T08:13:13.692Z,14.20
2018-07-17T08:15:42.780Z,6.90
2018-07-17T08:18:11.878Z,5.60
2018-07-17T08:20:41.042Z,5.37
2018-07-17T08:23:10.191Z,6.83
2018-07-17T08:25:39.249Z,4.40
2018-07-17T08:28:08.471Z,4.57
2018-07-17T08:30:37.572Z,5.63
2018-07-17T08:33:06.708Z,8.60
2018-07-17T08:35:35.809Z,8.90
2018-07-17T08:38:04.916Z,9.60
2018-07-17T08:40:33.981Z,4.07
2018-07-17T08:43:03.085Z,4.70
2018-07-17T08:45:32.231Z,4.33
2018-07-17T08:48:01.405Z,4.30
2018-07-17T08:50:30.485Z,3.20
2018-07-17T08:52:59.610Z,4.53
2018-07-17T08:55:28.703Z,4.10
2018-07-17T08:57:57.847Z,2.87
2018-07-17T09:00:26.962Z,2.27
2018-07-17T09:02:56.069Z,3.30
2018-07-17T09:05:25.216Z,0.93
2018-07-17T09:07:54.334Z,1.57
2018-07-17T09:10:23.451Z,0.93
2018-07-17T09:12:52.534Z,3.30
2018-07-17T09:15:21.642Z,2.30
2018-07-17T09:17:50.775Z,2.93
2018-07-17T09:20:19.941Z,2.10
2018-07-17T09:22:49.119Z,1.90
2018-07-17T09:25:18.197Z,0.63
2018-07-17T09:27:47.286Z,0.77
2018-07-17T09:30:16.399Z,1.20
2018-07-17T09:32:45.490Z,1.27
2018-07-17T09:35:14.535Z,4.60
2018-07-17T09:37:43.425Z,1.53
2018-07-17T09:40:12.351Z,2.97
2018-07-17T09:42:41.458Z,7.50
2018-07-17T09:45:10.556Z,5.90
2018-07-17T09:47:39.673Z,3.00
2018-07-17T09:50:08.775Z,1.23
2018-07-17T09:52:37.870Z,1.87
2018-07-17T09:55:07.272Z,2.43
2018-07-17T09:57:42.777Z,6.10
2018-07-17T10:00:16.007Z,3.43
2018-07-17T10:02:45.145Z,5.73
2018-07-17T10:05:14.279Z,1.60
2018-07-17T10:07:43.394Z,1.67
2018-07-17T10:10:12.548Z,3.43
2018-07-17T10:12:41.627Z,7.93
2018-07-17T10:15:10.747Z,4.30
2018-07-17T10:17:39.883Z,1.43
2018-07-17T10:20:09.574Z,1.00
2018-07-17T10:22:38.827Z,4.83
2018-07-17T10:25:08.573Z,12.70
2018-07-17T10:27:37.986Z,6.77
2018-07-17T10:30:07.320Z,2.23
2018-07-17T10:32:36.678Z,6.43
2018-07-17T10:35:06.366Z,1.87
2018-07-17T10:37:35.523Z,3.20
2018-07-17T10:40:05.386Z,3.70
2018-07-17T10:42:35.400Z,5.47
2018-07-17T10:45:04.594Z,5.00
2018-07-17T10:47:33.709Z,2.40
2018-07-17T10:50:02.805Z,2.60
2018-07-17T10:52:31.976Z,2.97
2018-07-17T10:55:01.141Z,7.90
2018-07-17T10:57:30.288Z,2.20
2018-07-17T10:59:59.388Z,2.37
2018-07-17T11:02:28.616Z,2.03
2018-07-17T11:04:57.772Z,3.07
2018-07-17T11:07:26.895Z,2.00
2018-07-17T11:09:56.007Z,2.60
2018-07-17T11:12:25.188Z,2.50
2018-07-17T11:14:54.418Z,5.53
2018-07-17T11:17:23.490Z,4.60
2018-07-17T11:19:52.598Z,4.27
2018-07-17T11:22:21.668Z,2.87
2018-07-17T11:24:50.782Z,2.43
2018-07-17T11:27:19.874Z,6.83
2018-07-17T11:29:48.938Z,3.10
2018-07-17T11:32:18.113Z,12.80
2018-07-17T11:34:47.337Z,5.43
2018-07-17T11:37:16.542Z,4.17
2018-07-17T11:39:45.637Z,4.33
2018-07-17T11:42:14.751Z,4.47
2018-07-17T11:44:43.839Z,3.73
2018-07-17T11:47:12.990Z,5.77
2018-07-17T11:49:42.207Z,2.40
2018-07-17T11:52:11.246Z,3.20
2018-07-17T11:54:40.319Z,3.10
2018-07-17T11:57:09.442Z,8.60
2018-07-17T11:59:38.798Z,2.37
2018-07-17T12:02:07.812Z,7.73
2018-07-17T12:04:36.924Z,5.43
2018-07-17T12:07:06.011Z,3.80
2018-07-17T12:09:35.093Z,8.27
2018-07-17T12:12:04.229Z,3.50
2018-07-17T12:14:33.376Z,16.53
2018-07-17T12:17:02.521Z,3.50
2018-07-17T12:19:31.787Z,3.03
2018-07-17T12:22:00.834Z,2.50
2018-07-17T12:24:29.983Z,3.67
2018-07-17T12:26:59.058Z,7.93
2018-07-17T12:29:28.154Z,3.93
2018-07-17T12:31:57.291Z,4.80
2018-07-17T12:34:26.417Z,7.70
2018-07-17T12:36:55.585Z,2.30
2018-07-17T12:39:24.705Z,5.33
2018-07-17T12:41:53.823Z,3.13
2018-07-17T12:44:23.015Z,6.67
2018-07-17T12:46:52.048Z,5.80
2018-07-17T12:49:21.190Z,4.93
2018-07-17T12:51:50.309Z,5.70
2018-07-17T12:54:19.470Z,4.13
2018-07-17T12:56:48.629Z,2.03
2018-07-17T12:59:17.695Z,4.93
2018-07-17T13:01:46.834Z,7.20
2018-07-17T13:04:15.914Z,2.80
2018-07-17T13:06:45.058Z,3.20
2018-07-17T13:09:14.178Z,3.03
2018-07-17T13:11:43.254Z,4.67
2018-07-17T13:14:12.311Z,2.53
2018-07-17T13:16:41.402Z,3.27
2018-07-17T13:19:10.498Z,2.30
2018-07-17T13:21:39.545Z,2.60
2018-07-17T13:24:08.671Z,6.43
2018-07-17T13:26:37.732Z,4.77
2018-07-17T13:29:07.180Z,2.93
2018-07-17T13:31:36.212Z,3.37
2018-07-17T13:34:05.261Z,2.10
2018-07-17T13:36:34.372Z,2.90
2018-07-17T13:39:04.153Z,2.57
2018-07-17T13:41:33.180Z,7.43
2018-07-17T13:44:02.295Z,5.00
2018-07-17T13:46:31.395Z,2.43
2018-07-17T13:49:00.564Z,2.40
2018-07-17T13:51:29.797Z,2.90
2018-07-17T13:53:58.883Z,5.27
2018-07-17T13:56:28.103Z,2.70
2018-07-17T13:58:57.222Z,2.47
2018-07-17T14:01:26.324Z,4.80
2018-07-17T14:03:55.462Z,4.13
2018-07-17T14:06:24.628Z,3.40
2018-07-17T14:08:53.712Z,3.37
2018-07-17T14:11:22.806Z,4.10
2018-07-17T14:13:51.890Z,5.30
2018-07-17T14:16:21.057Z,2.67
2018-07-17T14:18:50.080Z,4.13
2018-07-17T14:21:19.183Z,7.83
2018-07-17T14:23:48.374Z,3.87
2018-07-17T14:26:17.415Z,4.00
2018-07-17T14:28:46.565Z,6.63
2018-07-17T14:31:15.647Z,5.10
2018-07-17T14:33:44.726Z,4.63
2018-07-17T14:36:13.851Z,4.90
2018-07-17T14:38:42.999Z,3.40
2018-07-17T14:41:12.096Z,7.17
2018-07-17T14:43:41.144Z,3.87
2018-07-17T14:46:10.237Z,8.63
2018-07-17T14:48:39.871Z,6.00
2018-07-17T14:51:12.320Z,8.17
2018-07-17T14:53:41.423Z,11.47
2018-07-17T14:56:10.668Z,2.80
2018-07-17T14:58:39.790Z,11.27
2018-07-17T15:01:08.886Z,2.90
2018-07-17T15:03:38.128Z,3.70
2018-07-17T15:06:07.189Z,4.50
2018-07-17T15:08:36.347Z,4.60
2018-07-17T15:11:05.424Z,2.43
2018-07-17T15:13:34.555Z,2.60
2018-07-17T15:16:03.722Z,2.70
2018-07-17T15:18:32.814Z,3.27
2018-07-17T15:21:01.981Z,10.07
2018-07-17T15:23:31.282Z,2.70
2018-07-17T15:26:00.423Z,2.67
2018-07-17T15:28:29.532Z,8.23
2018-07-17T15:30:58.610Z,5.20
2018-07-17T15:33:27.732Z,17.50
2018-07-17T15:35:56.850Z,9.93
2018-07-17T15:38:26.069Z,4.77
2018-07-17T15:40:55.189Z,6.00
2018-07-17T15:43:24.340Z,11.07
2018-07-17T15:45:53.741Z,6.77
2018-07-17T15:48:22.811Z,10.10
2018-07-17T15:50:51.880Z,6.17
2018-07-17T15:53:21.032Z,3.53
2018-07-17T15:55:50.174Z,2.97
2018-07-17T15:58:19.264Z,6.00
2018-07-17T16:00:48.368Z,5.27
2018-07-17T16:03:17.493Z,6.40
2018-07-17T16:05:46.783Z,14.17
2018-07-17T16:08:15.833Z,7.73
2018-07-17T16:10:44.924Z,5.97
2018-07-17T16:13:14.012Z,6.70
2018-07-17T16:15:43.219Z,4.40
2018-07-17T16:18:12.390Z,3.20
2018-07-17T16:20:41.474Z,4.63
2018-07-17T16:23:10.658Z,4.73
2018-07-17T16:25:39.869Z,3.67
2018-07-17T16:28:09.018Z,3.20
2018-07-17T16:30:38.088Z,10.73
2018-07-17T16:33:07.135Z,7.90
2018-07-17T16:35:36.250Z,4.53
2018-07-17T16:38:05.338Z,4.40
2018-07-17T16:40:34.639Z,10.33
2018-07-17T16:43:03.746Z,6.20
2018-07-17T16:45:32.799Z,5.83
2018-07-17T16:48:01.995Z,3.00
2018-07-17T16:50:31.092Z,3.03
2018-07-17T16:53:00.230Z,7.73
2018-07-17T16:55:29.354Z,4.70
2018-07-17T16:57:58.419Z,4.73
2018-07-17T17:00:27.571Z,3.33
2018-07-17T17:02:56.739Z,3.40
2018-07-17T17:05:25.978Z,3.50
2018-07-17T17:07:55.095Z,5.43
2018-07-17T17:10:24.174Z,7.70
2018-07-17T17:12:53.359Z,3.90
2018-07-17T17:15:22.481Z,11.57
2018-07-17T17:17:51.496Z,4.03
2018-07-17T17:20:20.761Z,2.80
2018-07-17T17:22:49.900Z,3.07
2018-07-17T17:25:19.010Z,2.63
2018-07-17T17:27:48.107Z,4.03
2018-07-17T17:30:17.204Z,7.73
2018-07-17T17:32:46.385Z,3.70
2018-07-17T17:35:15.438Z,4.73
2018-07-17T17:37:44.574Z,3.53
2018-07-17T17:40:13.723Z,6.10
2018-07-17T17:42:42.803Z,11.47
2018-07-17T17:45:11.976Z,8.23
2018-07-17T17:47:41.076Z,4.93
2018-07-17T17:50:10.184Z,4.30
2018-07-17T17:52:39.592Z,11.40
2018-07-17T17:55:08.876Z,14.33
2018-07-17T17:57:37.988Z,3.90
2018-07-17T18:00:07.418Z,6.53
2018-07-17T18:02:36.329Z,4.63
2018-07-17T18:05:05.940Z,6.57
2018-07-17T18:07:35.083Z,11.53
2018-07-17T18:10:04.220Z,7.43
2018-07-17T18:12:33.282Z,7.13
2018-07-17T18:15:02.416Z,4.53
2018-07-17T18:17:31.604Z,9.10
2018-07-17T18:20:00.707Z,7.30
2018-07-17T18:22:29.848Z,5.73
2018-07-17T18:24:58.998Z,8.60
2018-07-17T18:27:28.151Z,2.97
2018-07-17T18:29:57.312Z,2.93
2018-07-17T18:32:26.431Z,10.03
2018-07-17T18:34:55.553Z,2.90
2018-07-17T18:37:24.650Z,3.60
2018-07-17T18:39:53.784Z,8.53
2018-07-17T18:42:22.878Z,3.27
2018-07-17T18:44:52.096Z,7.10
2018-07-17T18:47:21.221Z,3.50
2018-07-17T18:50:11.998Z,4.43
2018-07-17T18:52:19.476Z,2.87
2018-07-17T18:54:48.579Z,2.80
2018-07-17T18:57:17.752Z,3.53
2018-07-17T18:59:46.918Z,7.93
2018-07-17T19:02:16.010Z,3.23
2018-07-17T19:04:45.097Z,6.83
2018-07-17T19:07:14.185Z,2.90
2018-07-17T19:09:43.294Z,2.60
2018-07-17T19:12:12.452Z,2.60
2018-07-17T19:14:41.532Z,3.97
2018-07-17T19:17:10.637Z,3.30
2018-07-17T19:19:39.730Z,2.93
2018-07-17T19:22:08.851Z,4.80
2018-07-17T19:24:37.966Z,3.67
2018-07-17T19:27:07.050Z,6.90
2018-07-17T19:29:36.166Z,3.33
2018-07-17T19:32:05.284Z,4.70
2018-07-17T19:34:34.401Z,3.67
2018-07-17T19:37:03.567Z,2.80
2018-07-17T19:39:32.666Z,3.17
2018-07-17T19:42:01.803Z,3.43
2018-07-17T19:44:30.908Z,3.57
2018-07-17T19:47:00.046Z,7.33
2018-07-17T19:49:29.155Z,10.40
2018-07-17T19:51:58.314Z,17.67
2018-07-17T19:54:27.754Z,49.17
2018-07-17T19:56:56.899Z,51.93
2018-07-17T19:59:26.044Z,25.00
2018-07-17T20:01:55.407Z,24.57
2018-07-17T20:04:24.614Z,22.33
2018-07-17T20:06:53.759Z,30.73
2018-07-17T20:09:22.887Z,28.87
2018-07-17T20:11:51.982Z,20.77
2018-07-17T20:14:21.084Z,15.20
2018-07-17T20:16:50.280Z,17.73
2018-07-17T20:19:19.410Z,16.50
2018-07-17T20:21:48.516Z,19.60
2018-07-17T20:24:17.593Z,10.43
2018-07-17T20:26:46.839Z,11.87
2018-07-17T20:29:15.886Z,11.73
2018-07-17T20:31:44.990Z,12.17
2018-07-17T20:34:14.081Z,13.23
2018-07-17T20:36:43.185Z,5.97
2018-07-17T20:39:12.455Z,14.27
2018-07-17T20:41:41.958Z,12.53
2018-07-17T20:44:11.145Z,17.20
2018-07-17T20:46:40.323Z,9.93
2018-07-17T20:49:09.426Z,6.43
2018-07-17T20:51:38.548Z,13.83
2018-07-17T20:54:07.626Z,9.10
2018-07-17T20:56:36.721Z,6.60
2018-07-17T20:59:05.912Z,13.67
2018-07-17T21:01:35.090Z,9.13
2018-07-17T21:04:04.222Z,10.60
2018-07-17T21:06:33.361Z,12.87
2018-07-17T21:09:02.511Z,4.67
2018-07-17T21:11:31.615Z,4.73
2018-07-17T21:14:00.731Z,8.63
2018-07-17T21:16:29.867Z,9.43
2018-07-17T21:18:58.953Z,5.20
2018-07-17T21:21:28.057Z,7.20
2018-07-17T21:23:57.126Z,8.40
2018-07-17T21:26:26.294Z,16.10
2018-07-17T21:28:55.642Z,4.30
2018-07-17T21:31:24.733Z,6.50
2018-07-17T21:33:53.870Z,3.90
2018-07-17T21:36:23.052Z,5.30
2018-07-17T21:38:52.117Z,11.03
2018-07-17T21:41:21.227Z,7.70
2018-07-17T21:43:50.388Z,5.20
2018-07-17T21:46:19.503Z,17.10
2018-07-17T21:48:48.794Z,4.87
2018-07-17T21:51:17.887Z,10.73
2018-07-17T21:53:47.143Z,3.77
2018-07-17T21:56:16.239Z,6.17
2018-07-17T21:58:45.302Z,9.60
2018-07-17T22:01:14.425Z,4.67
2018-07-17T22:03:43.556Z,5.50
2018-07-17T22:06:12.640Z,3.70
2018-07-17T22:08:41.698Z,4.00
2018-07-17T22:11:10.761Z,6.70
2018-07-17T22:13:39.749Z,6.57
2018-07-17T22:16:08.785Z,6.63
2018-07-17T22:18:37.920Z,7.50
2018-07-17T22:21:07.287Z,6.63
2018-07-17T22:23:36.341Z,5.27
2018-07-17T22:26:05.495Z,4.40
2018-07-17T22:28:34.590Z,8.27
2018-07-17T22:31:03.667Z,8.53
2018-07-17T22:33:32.768Z,7.50
2018-07-17T22:36:01.878Z,5.90
2018-07-17T22:38:30.982Z,5.70
2018-07-17T22:41:00.090Z,8.30
2018-07-17T22:43:29.198Z,9.37
2018-07-17T22:45:58.287Z,4.17
2018-07-17T22:48:27.414Z,6.10
2018-07-17T22:50:56.547Z,6.83
2018-07-17T22:53:25.646Z,4.10
2018-07-17T22:55:54.871Z,9.47
2018-07-17T22:58:24.005Z,4.17
2018-07-17T23:00:53.134Z,4.23
2018-07-17T23:03:22.329Z,10.33
2018-07-17T23:05:51.487Z,8.40
2018-07-17T23:08:20.683Z,4.57
2018-07-17T23:10:49.840Z,9.37
2018-07-17T23:13:19.074Z,8.13
2018-07-17T23:15:48.195Z,9.27
2018-07-17T23:18:17.262Z,6.40
2018-07-17T23:20:46.315Z,8.40
2018-07-17T23:23:15.438Z,7.23
2018-07-17T23:25:44.530Z,10.20
2018-07-17T23:28:13.629Z,8.87
2018-07-17T23:30:42.727Z,5.20
2018-07-17T23:33:11.944Z,7.67
2018-07-17T23:35:41.065Z,5.17
2018-07-17T23:38:10.158Z,8.73
2018-07-17T23:40:39.281Z,9.83
2018-07-17T23:43:08.371Z,10.63
2018-07-17T23:45:37.485Z,5.40
2018-07-17T23:48:06.607Z,5.80
2018-07-17T23:50:35.720Z,4.97
2018-07-17T23:53:04.831Z,16.23
2018-07-17T23:55:33.999Z,11.30
2018-07-17T23:58:03.084Z,4.87
